Time;durP1;ratioP1;P1;durP2;ratioP2;P2;SDS_P1;SDS_P2;PMS_P1;PMS_P2;Temp;Humidity;BMP_temperature;BMP_pressure;BME280_temperature;BME280_humidity;BME280_pressure;Samples;Min_cycle;Max_cycle;Signal;HPM_P1;HPM_P2
2023/02/28 00:00:50;;;;;;;10.88;6.63;;;-6.10;99.60;;;;;;5052736;28;20029;-78
2023/02/28 00:03:16;;;;;;;12.00;6.55;;;-6.10;99.70;;;;;;5052830;28;20075;-77
2023/02/28 00:05:42;;;;;;;15.00;7.80;;;-6.10;99.70;;;;;;5053070;28;20025;-76
2023/02/28 00:08:08;;;;;;;12.18;6.68;;;-6.10;99.60;;;;;;5053134;28;20079;-78
2023/02/28 00:10:34;;;;;;;10.13;7.30;;;-6.10;99.70;;;;;;5052582;28;20021;-77
2023/02/28 00:13:05;;;;;;;11.77;6.60;;;-6.10;99.70;;;;;;5053432;28;20100;-75
2023/02/28 00:15:31;;;;;;;13.90;7.63;;;-6.10;99.70;;;;;;5034444;28;20549;-77
2023/02/28 00:17:57;;;;;;;10.68;7.30;;;-6.10;99.70;;;;;;5049457;28;20098;-77
2023/02/28 00:20:23;;;;;;;10.13;5.72;;;-6.20;99.70;;;;;;5051357;28;20428;-75
2023/02/28 00:22:52;;;;;;;12.27;7.68;;;-6.20;99.70;;;;;;5052807;28;20017;-77
2023/02/28 00:25:21;;;;;;;13.02;8.35;;;-6.20;99.70;;;;;;5029092;28;20025;-78
2023/02/28 00:27:47;;;;;;;11.73;6.75;;;-6.20;99.80;;;;;;5052648;28;20078;-78
2023/02/28 00:30:18;;;;;;;11.02;7.22;;;-6.20;99.80;;;;;;5046047;28;20498;-77
2023/02/28 00:32:44;;;;;;;12.85;7.13;;;-6.30;99.80;;;;;;5045059;28;20078;-78
2023/02/28 00:35:11;;;;;;;10.15;6.53;;;-6.20;99.90;;;;;;5052035;28;20040;-79
2023/02/28 00:37:38;;;;;;;9.32;6.60;;;-6.20;99.90;;;;;;5052466;28;20013;-77
2023/02/28 00:40:06;;;;;;;10.32;6.10;;;-6.20;99.90;;;;;;5052578;28;20029;-78
2023/02/28 00:42:33;;;;;;;14.75;7.95;;;-6.20;99.80;;;;;;5051398;28;20024;-78
2023/02/28 00:44:59;;;;;;;13.23;8.10;;;-6.30;99.70;;;;;;5052595;28;20071;-77
2023/02/28 00:47:26;;;;;;;13.73;7.27;;;-6.30;99.70;;;;;;5042316;28;20527;-78
2023/02/28 00:49:52;;;;;;;11.82;7.78;;;-6.30;99.70;;;;;;5034321;28;20017;-77
2023/02/28 00:52:18;;;;;;;13.20;6.93;;;-6.40;99.70;;;;;;5048136;28;20101;-76
2023/02/28 00:54:44;;;;;;;11.23;7.72;;;-6.40;99.80;;;;;;5031470;28;20033;-77
2023/02/28 00:57:09;;;;;;;12.23;6.72;;;-6.50;99.70;;;;;;5048803;28;20036;-77
2023/02/28 00:59:35;;;;;;;11.68;7.28;;;-6.50;99.70;;;;;;5046747;28;20437;-77
2023/02/28 01:02:01;;;;;;;7.15;5.00;;;-6.50;99.80;;;;;;5046542;28;20452;-79
2023/02/28 01:04:27;;;;;;;12.38;6.65;;;-6.50;99.70;;;;;;5050817;28;20049;-76
2023/02/28 01:06:53;;;;;;;10.05;6.28;;;-6.50;99.70;;;;;;5053056;28;20453;-78
2023/02/28 01:09:20;;;;;;;12.63;7.05;;;-6.60;99.70;;;;;;5047536;28;20091;-77
2023/02/28 01:11:46;;;;;;;9.93;5.82;;;-6.50;99.70;;;;;;5049237;28;20389;-77
2023/02/28 01:14:14;;;;;;;11.15;6.32;;;-6.60;99.70;;;;;;5048823;28;20127;-77
2023/02/28 01:16:40;;;;;;;10.95;5.50;;;-6.60;99.80;;;;;;5051423;28;20393;-75
2023/02/28 01:19:06;;;;;;;10.48;7.07;;;-6.60;99.70;;;;;;5048519;28;20070;-77
2023/02/28 01:21:32;;;;;;;9.73;5.28;;;-6.60;99.60;;;;;;5051026;28;20747;-77
2023/02/28 01:23:58;;;;;;;10.18;6.30;;;-6.70;99.50;;;;;;5050345;28;20024;-75
2023/02/28 01:26:24;;;;;;;9.95;6.18;;;-6.80;99.60;;;;;;5051794;28;20106;-78
2023/02/28 01:28:52;;;;;;;15.10;7.28;;;-6.80;99.70;;;;;;5051753;28;20037;-77
2023/02/28 01:31:19;;;;;;;9.55;6.03;;;-6.80;99.70;;;;;;5051825;28;20380;-78
2023/02/28 01:33:46;;;;;;;10.00;5.50;;;-6.80;99.70;;;;;;5024125;28;20074;-76
2023/02/28 01:36:18;;;;;;;12.73;7.15;;;-6.80;99.80;;;;;;5046676;28;20033;-77
2023/02/28 01:38:45;;;;;;;16.23;7.43;;;-6.90;99.70;;;;;;5051512;28;20099;-77
2023/02/28 01:41:23;;;;;;;8.63;5.90;;;-6.90;99.80;;;;;;5051861;28;20096;-77
2023/02/28 01:43:49;;;;;;;10.95;6.70;;;-6.90;99.80;;;;;;5033930;28;20276;-76
2023/02/28 01:46:15;;;;;;;8.82;4.68;;;-6.90;99.90;;;;;;5048428;28;20013;-76
2023/02/28 01:49:05;;;;;;;9.98;7.18;;;-6.90;99.90;;;;;;5049537;28;20457;-78
2023/02/28 01:51:50;;;;;;;13.18;6.57;;;-6.90;99.90;;;;;;5053103;28;20482;-77
2023/02/28 01:54:25;;;;;;;11.95;6.45;;;-6.90;99.90;;;;;;5059054;28;20490;-77
2023/02/28 01:57:03;;;;;;;10.32;5.22;;;-6.90;99.90;;;;;;5057913;28;20050;-77
2023/02/28 02:00:00;;;;;;;7.47;5.82;;;-6.90;99.90;;;;;;5054895;28;20390;-75
2023/02/28 02:02:27;;;;;;;10.73;6.38;;;-6.90;99.90;;;;;;5035711;28;20397;-76
2023/02/28 02:05:09;;;;;;;9.68;5.97;;;-6.90;99.90;;;;;;5037405;28;20036;-78
2023/02/28 02:07:41;;;;;;;10.32;5.72;;;-6.90;99.90;;;;;;5040167;28;20055;-77
2023/02/28 02:10:14;;;;;;;9.95;6.20;;;-6.90;99.90;;;;;;5055401;28;20025;-78
2023/02/28 02:13:16;;;;;;;10.23;5.88;;;-7.00;99.90;;;;;;5055333;28;20425;-77
2023/02/28 02:16:11;;;;;;;11.55;6.90;;;-6.90;99.90;;;;;;5055425;28;20028;-77
2023/02/28 02:19:19;;;;;;;9.68;6.07;;;-6.90;99.90;;;;;;5057957;28;20036;-78
2023/02/28 02:22:12;;;;;;;8.40;6.82;;;-6.90;99.90;;;;;;4986589;28;20023;-76
2023/02/28 02:25:02;;;;;;;15.20;8.55;;;-7.00;99.90;;;;;;4997786;28;20030;-78
2023/02/28 02:28:05;;;;;;;13.80;8.00;;;-7.00;99.90;;;;;;5045320;28;20037;-78
2023/02/28 02:31:09;;;;;;;13.88;7.05;;;-6.90;99.90;;;;;;5055424;28;20025;-78
2023/02/28 02:34:08;;;;;;;8.82;6.65;;;-7.00;99.90;;;;;;5043308;28;20112;-78
2023/02/28 02:36:42;;;;;;;10.68;6.10;;;-7.00;99.90;;;;;;5041246;28;20029;-77
2023/02/28 02:39:39;;;;;;;12.23;8.00;;;-7.00;99.90;;;;;;5052599;28;20112;-77
2023/02/28 02:42:15;;;;;;;10.98;6.25;;;-6.90;99.90;;;;;;5036873;28;20037;-78
2023/02/28 02:44:53;;;;;;;11.73;5.72;;;-6.90;99.90;;;;;;5042672;28;20009;-77
2023/02/28 02:47:22;;;;;;;11.32;5.97;;;-6.90;99.90;;;;;;5037481;28;20025;-78
2023/02/28 02:49:54;;;;;;;12.25;8.32;;;-6.90;99.90;;;;;;5037310;28;20472;-76
2023/02/28 02:52:24;;;;;;;11.60;5.43;;;-6.90;99.90;;;;;;5058186;28;20055;-78
2023/02/28 02:54:52;;;;;;;10.07;5.78;;;-6.80;99.90;;;;;;5058312;28;20029;-77
2023/02/28 02:57:25;;;;;;;9.43;6.30;;;-6.80;99.90;;;;;;5058125;28;20021;-77
2023/02/28 02:59:53;;;;;;;9.90;6.43;;;-6.80;99.90;;;;;;5038352;28;20461;-78
2023/02/28 03:02:21;;;;;;;13.45;7.68;;;-6.80;99.90;;;;;;5059556;28;20359;-77
2023/02/28 03:04:52;;;;;;;8.85;5.35;;;-6.80;99.90;;;;;;5059885;28;20043;-77
2023/02/28 03:07:18;;;;;;;12.85;7.38;;;-6.80;99.90;;;;;;5057580;28;20112;-78
2023/02/28 03:09:57;;;;;;;11.50;7.05;;;-6.80;99.90;;;;;;5058140;28;20056;-78
2023/02/28 03:12:32;;;;;;;8.98;6.03;;;-6.70;99.90;;;;;;5030634;28;20478;-79
2023/02/28 03:15:13;;;;;;;5.97;4.60;;;-6.80;99.90;;;;;;5054721;28;20044;-78
2023/02/28 03:18:08;;;;;;;9.65;5.97;;;-6.70;99.90;;;;;;5036801;28;20117;-78
2023/02/28 03:21:02;;;;;;;10.15;5.70;;;-6.70;99.90;;;;;;5055700;28;20017;-76
2023/02/28 03:23:52;;;;;;;8.25;5.68;;;-6.80;99.90;;;;;;5050046;28;20033;-80
2023/02/28 03:26:26;;;;;;;9.65;5.72;;;-6.80;99.80;;;;;;5057230;28;20111;-78
2023/02/28 03:28:52;;;;;;;8.30;5.13;;;-6.80;99.80;;;;;;5048056;28;20025;-79
2023/02/28 03:31:30;;;;;;;7.05;4.40;;;-6.80;99.70;;;;;;5057633;28;20036;-79
2023/02/28 03:34:32;;;;;;;7.80;4.57;;;-6.80;99.70;;;;;;5058673;28;20056;-78
2023/02/28 03:37:05;;;;;;;6.35;3.85;;;-6.80;99.70;;;;;;5028143;28;20021;-78
2023/02/28 03:39:43;;;;;;;5.75;3.78;;;-6.80;99.60;;;;;;5052025;28;20021;-76
2023/02/28 03:42:15;;;;;;;11.15;4.65;;;-6.80;99.60;;;;;;5048388;28;20026;-78
2023/02/28 03:44:49;;;;;;;9.35;5.32;;;-6.70;99.50;;;;;;5050267;28;20103;-78
2023/02/28 03:47:22;;;;;;;8.02;4.10;;;-6.70;99.40;;;;;;5053979;28;20029;-77
2023/02/28 03:49:59;;;;;;;5.22;3.78;;;-6.70;99.40;;;;;;5053577;28;20063;-77
2023/02/28 03:52:31;;;;;;;7.38;4.65;;;-6.80;99.30;;;;;;5053606;28;20082;-77
2023/02/28 03:55:03;;;;;;;6.75;4.63;;;-6.70;99.30;;;;;;5035304;28;20402;-76
2023/02/28 03:58:08;;;;;;;8.63;4.03;;;-6.80;99.30;;;;;;5053761;28;20105;-76
2023/02/28 04:00:38;;;;;;;9.52;5.38;;;-6.70;99.20;;;;;;4998929;28;20048;-79
2023/02/28 04:03:05;;;;;;;7.10;4.35;;;-6.80;99.10;;;;;;5054499;28;20024;-76
2023/02/28 04:05:31;;;;;;;8.88;3.40;;;-6.80;99.10;;;;;;5054672;28;20078;-77
2023/02/28 04:08:08;;;;;;;6.78;4.72;;;-6.80;99.20;;;;;;5053856;28;20407;-79
2023/02/28 04:10:34;;;;;;;7.13;4.27;;;-6.80;99.20;;;;;;5053339;28;20033;-78
2023/02/28 04:13:00;;;;;;;9.02;5.10;;;-6.80;99.30;;;;;;5052959;28;20261;-78
2023/02/28 04:15:27;;;;;;;5.45;3.83;;;-6.80;99.30;;;;;;5053156;28;20029;-76
2023/02/28 04:17:53;;;;;;;4.07;3.00;;;-6.80;99.30;;;;;;5052423;28;20067;-77
2023/02/28 04:20:19;;;;;;;7.95;4.80;;;-6.70;99.30;;;;;;5053458;28;20028;-77
2023/02/28 04:22:44;;;;;;;8.40;5.10;;;-6.80;99.20;;;;;;5053305;28;20021;-78
2023/02/28 04:25:10;;;;;;;7.65;4.18;;;-6.70;99.20;;;;;;5054783;28;20025;-78
2023/02/28 04:27:36;;;;;;;5.95;4.47;;;-6.70;99.10;;;;;;5061791;28;20017;-79
2023/02/28 04:30:03;;;;;;;8.20;4.18;;;-6.70;99.10;;;;;;5054994;28;20253;-79
2023/02/28 04:32:28;;;;;;;5.30;3.38;;;-6.70;99.10;;;;;;5053170;28;20017;-79
2023/02/28 04:34:54;;;;;;;5.00;3.42;;;-6.70;99.00;;;;;;5045300;28;20107;-79
2023/02/28 04:37:20;;;;;;;5.78;3.25;;;-6.60;98.90;;;;;;5045388;28;20073;-78
2023/02/28 04:39:46;;;;;;;6.50;3.78;;;-6.60;98.80;;;;;;5053102;28;20040;-78
2023/02/28 04:42:13;;;;;;;4.70;3.22;;;-6.60;98.60;;;;;;5060865;28;20051;-79
2023/02/28 04:44:39;;;;;;;8.60;4.68;;;-6.60;98.40;;;;;;5053808;28;20028;-77
2023/02/28 04:47:05;;;;;;;7.68;4.40;;;-6.60;98.30;;;;;;5053030;28;20493;-79
2023/02/28 04:49:31;;;;;;;9.32;4.40;;;-6.50;98.20;;;;;;5051416;28;20029;-77
2023/02/28 04:51:57;;;;;;;6.93;4.53;;;-6.50;98.20;;;;;;5052689;28;20035;-78
2023/02/28 04:54:24;;;;;;;8.37;4.50;;;-6.50;98.10;;;;;;5052725;28;20039;-79
2023/02/28 04:56:50;;;;;;;10.25;5.00;;;-6.50;98.10;;;;;;5052599;28;20448;-77
2023/02/28 04:59:15;;;;;;;7.35;4.88;;;-6.40;98.00;;;;;;5052647;28;20047;-77
2023/02/28 05:01:47;;;;;;;8.60;4.20;;;-6.40;97.80;;;;;;5052450;28;20025;-77
2023/02/28 05:04:12;;;;;;;7.07;4.93;;;-6.40;97.70;;;;;;5052382;28;20025;-79
2023/02/28 05:06:38;;;;;;;5.40;3.30;;;-6.40;97.60;;;;;;5051337;28;20056;-79
2023/02/28 05:09:04;;;;;;;6.85;3.70;;;-6.30;97.50;;;;;;5052896;28;20079;-78
2023/02/28 05:11:35;;;;;;;8.07;3.65;;;-6.30;97.30;;;;;;5052898;28;20039;-79
2023/02/28 05:14:09;;;;;;;6.30;3.65;;;-6.30;97.20;;;;;;5034011;28;20049;-78
2023/02/28 05:16:35;;;;;;;8.13;4.70;;;-6.20;97.20;;;;;;5030918;28;20029;-78
2023/02/28 05:19:01;;;;;;;7.53;5.25;;;-6.20;97.20;;;;;;5038410;28;20047;-78
2023/02/28 05:21:30;;;;;;;6.47;3.88;;;-6.10;97.10;;;;;;5052437;28;20021;-78
2023/02/28 05:23:58;;;;;;;6.25;3.95;;;-6.10;96.80;;;;;;5051224;28;20040;-78
2023/02/28 05:26:25;;;;;;;4.35;2.95;;;-6.10;96.20;;;;;;5052802;28;20021;-78
2023/02/28 05:28:51;;;;;;;11.23;3.97;;;-6.10;96.30;;;;;;5052827;28;20028;-78
2023/02/28 05:31:18;;;;;;;8.18;4.30;;;-6.00;96.20;;;;;;5047053;28;20029;-79
2023/02/28 05:33:44;;;;;;;7.85;3.53;;;-6.00;96.20;;;;;;5054771;28;20041;-77
2023/02/28 05:36:09;;;;;;;6.75;3.80;;;-6.00;95.90;;;;;;5065794;28;20041;-77
2023/02/28 05:38:36;;;;;;;7.63;3.22;;;-6.00;95.60;;;;;;5048621;28;20032;-79
2023/02/28 05:41:06;;;;;;;10.25;4.50;;;-5.90;95.50;;;;;;5051845;28;20054;-78
2023/02/28 05:43:31;;;;;;;6.32;4.10;;;-5.80;95.50;;;;;;5036710;28;20106;-78
2023/02/28 05:45:57;;;;;;;7.68;4.43;;;-5.80;95.60;;;;;;5037864;28;20100;-79
2023/02/28 05:48:23;;;;;;;6.75;4.53;;;-5.70;95.30;;;;;;5043235;28;20021;-79
2023/02/28 05:50:49;;;;;;;9.30;3.67;;;-5.70;95.10;;;;;;5037994;28;20017;-78
2023/02/28 05:53:15;;;;;;;14.45;5.65;;;-5.70;95.10;;;;;;5041552;28;20170;-78
2023/02/28 05:55:41;;;;;;;9.50;5.00;;;-5.70;95.00;;;;;;5043243;28;20499;-79
2023/02/28 05:58:07;;;;;;;6.93;4.47;;;-5.60;94.90;;;;;;5039321;28;20064;-79
2023/02/28 06:00:33;;;;;;;4.05;2.58;;;-5.60;94.90;;;;;;5042113;28;20025;-77
2023/02/28 06:03:01;;;;;;;7.05;4.53;;;-5.50;94.80;;;;;;5037899;28;20018;-79
2023/02/28 06:05:27;;;;;;;6.22;4.45;;;-5.40;94.50;;;;;;5044957;28;20074;-78
2023/02/28 06:07:53;;;;;;;8.02;4.82;;;-5.30;94.40;;;;;;5052328;28;20104;-77
2023/02/28 06:10:19;;;;;;;5.57;3.00;;;-5.20;94.20;;;;;;5043628;28;20041;-77
2023/02/28 06:12:45;;;;;;;7.13;4.10;;;-5.20;94.10;;;;;;5038791;28;20018;-79
2023/02/28 06:15:16;;;;;;;8.18;4.82;;;-5.20;94.00;;;;;;5039577;28;20049;-79
2023/02/28 06:17:43;;;;;;;7.32;4.18;;;-5.20;94.00;;;;;;5056984;28;20040;-78
2023/02/28 06:20:12;;;;;;;11.63;4.53;;;-5.20;93.80;;;;;;5048626;28;20064;-78
2023/02/28 06:22:39;;;;;;;7.88;3.40;;;-5.10;93.60;;;;;;5033547;28;20466;-78
2023/02/28 06:25:06;;;;;;;11.18;4.70;;;-5.00;93.60;;;;;;5048908;28;20032;-78
2023/02/28 06:27:33;;;;;;;19.50;5.55;;;-4.90;93.60;;;;;;5044740;28;20057;-77
2023/02/28 06:29:59;;;;;;;6.13;3.72;;;-4.70;93.50;;;;;;5040610;28;20053;-80
2023/02/28 06:32:25;;;;;;;10.70;4.05;;;-4.50;93.10;;;;;;5034787;28;20037;-78
2023/02/28 06:34:51;;;;;;;7.47;4.30;;;-4.30;92.70;;;;;;5033936;28;20029;-78
2023/02/28 06:37:18;;;;;;;6.47;3.80;;;-4.10;92.80;;;;;;5038874;28;20021;-77
2023/02/28 06:39:44;;;;;;;6.50;4.32;;;-3.80;92.20;;;;;;5032955;28;20486;-77
2023/02/28 06:42:10;;;;;;;5.80;3.55;;;-3.50;92.20;;;;;;5034946;28;20053;-78
2023/02/28 06:44:36;;;;;;;7.57;4.45;;;-3.30;91.60;;;;;;5032511;28;20026;-79
2023/02/28 06:47:04;;;;;;;8.27;4.20;;;-3.20;91.30;;;;;;5040112;28;20041;-81
2023/02/28 06:49:31;;;;;;;8.13;4.45;;;-3.10;91.20;;;;;;5051007;28;20101;-80
2023/02/28 06:51:57;;;;;;;10.93;4.88;;;-3.10;90.40;;;;;;5056183;28;20039;-82
2023/02/28 06:54:23;;;;;;;5.78;2.88;;;-3.30;88.90;;;;;;5052751;28;20041;-80
2023/02/28 06:56:49;;;;;;;8.95;4.03;;;-3.40;89.10;;;;;;5056981;28;20025;-81
2023/02/28 06:59:40;;;;;;;7.38;3.90;;;-3.40;90.10;;;;;;5047098;28;20055;-82
2023/02/28 07:02:11;;;;;;;6.97;3.70;;;-3.30;90.10;;;;;;5035763;28;20052;-81
2023/02/28 07:04:39;;;;;;;6.43;3.08;;;-3.20;90.00;;;;;;5039663;28;20105;-80
2023/02/28 07:07:05;;;;;;;7.47;4.22;;;-3.20;90.10;;;;;;5028238;28;20505;-81
2023/02/28 07:09:31;;;;;;;6.90;3.58;;;-3.10;90.30;;;;;;5056186;28;20025;-81
2023/02/28 07:11:57;;;;;;;8.60;5.25;;;-2.90;90.40;;;;;;5050970;28;20021;-81
2023/02/28 07:14:23;;;;;;;7.80;4.20;;;-2.90;90.40;;;;;;5040345;28;20042;-82
2023/02/28 07:16:50;;;;;;;8.75;5.43;;;-2.80;90.30;;;;;;5050967;28;20090;-82
2023/02/28 07:19:16;;;;;;;6.82;4.75;;;-2.90;90.40;;;;;;5043581;28;20041;-82
2023/02/28 07:21:41;;;;;;;6.88;4.47;;;-2.80;90.60;;;;;;5052147;28;20025;-80
2023/02/28 07:24:08;;;;;;;7.50;3.65;;;-2.70;90.20;;;;;;5048873;28;20037;-82
2023/02/28 07:26:34;;;;;;;8.30;4.38;;;-2.80;90.40;;;;;;5044514;28;20052;-82
2023/02/28 07:28:59;;;;;;;5.60;3.53;;;-2.60;90.80;;;;;;5053286;28;20390;-79
2023/02/28 07:31:25;;;;;;;6.82;4.35;;;-2.60;90.60;;;;;;5054636;28;20020;-80
2023/02/28 07:33:51;;;;;;;8.77;4.75;;;-2.50;90.70;;;;;;5056003;28;20032;-82
2023/02/28 07:36:20;;;;;;;7.68;4.57;;;-2.40;90.70;;;;;;5058543;28;20029;-79
2023/02/28 07:38:49;;;;;;;10.48;5.65;;;-2.30;90.70;;;;;;5049776;28;20029;-80
2023/02/28 07:41:17;;;;;;;7.88;4.03;;;-2.30;90.30;;;;;;5053731;28;20036;-80
2023/02/28 07:43:44;;;;;;;6.40;4.82;;;-2.20;90.50;;;;;;5057507;28;20017;-79
2023/02/28 07:46:14;;;;;;;10.07;4.00;;;-2.10;90.50;;;;;;5054630;28;20075;-82
2023/02/28 07:48:41;;;;;;;5.80;3.88;;;-2.10;90.50;;;;;;5055286;28;20363;-80
2023/02/28 07:51:07;;;;;;;8.07;4.53;;;-2.00;90.80;;;;;;5055956;28;20043;-81
2023/02/28 07:53:33;;;;;;;7.32;3.47;;;-1.90;91.00;;;;;;5055920;28;20021;-82
2023/02/28 07:56:01;;;;;;;9.73;4.60;;;-1.80;90.80;;;;;;5054474;28;20437;-81
2023/02/28 07:58:29;;;;;;;8.32;4.63;;;-1.70;90.80;;;;;;5054034;28;20013;-80
2023/02/28 08:00:55;;;;;;;6.57;3.72;;;-1.80;90.00;;;;;;5054862;28;20021;-81
2023/02/28 08:03:23;;;;;;;10.57;4.73;;;-2.10;90.50;;;;;;5055636;28;20025;-81
2023/02/28 08:05:49;;;;;;;11.60;5.70;;;-2.20;90.90;;;;;;5036184;28;20017;-82
2023/02/28 08:08:15;;;;;;;8.52;3.63;;;-2.00;91.20;;;;;;5054565;28;20060;-82
2023/02/28 08:10:41;;;;;;;5.70;3.57;;;-1.90;91.00;;;;;;5037035;28;20025;-81
2023/02/28 08:13:07;;;;;;;9.40;4.05;;;-1.90;90.90;;;;;;5036590;28;20037;-81
2023/02/28 08:15:33;;;;;;;8.90;4.20;;;-1.80;91.00;;;;;;5054066;28;20033;-81
2023/02/28 08:17:59;;;;;;;9.32;4.60;;;-1.70;91.00;;;;;;5055299;28;20458;-81
2023/02/28 08:20:26;;;;;;;10.73;3.78;;;-1.60;91.00;;;;;;5062181;28;20029;-82
2023/02/28 08:22:52;;;;;;;5.70;3.22;;;-1.50;90.70;;;;;;5062167;28;20169;-81
2023/02/28 08:25:18;;;;;;;6.15;4.10;;;-1.50;90.80;;;;;;5056030;28;20132;-81
2023/02/28 08:27:44;;;;;;;5.95;4.18;;;-1.40;90.80;;;;;;5037409;28;20021;-82
2023/02/28 08:30:12;;;;;;;8.25;4.15;;;-1.30;90.80;;;;;;5054505;28;20095;-82
2023/02/28 08:32:38;;;;;;;6.55;3.95;;;-1.20;90.60;;;;;;5054416;28;20382;-82
2023/02/28 08:35:04;;;;;;;8.32;5.03;;;-1.00;90.60;;;;;;5053698;28;20029;-81
2023/02/28 08:37:30;;;;;;;7.68;4.45;;;-1.00;90.10;;;;;;5054467;28;20535;-83
2023/02/28 08:39:56;;;;;;;7.00;4.63;;;-1.00;90.10;;;;;;5047114;28;20112;-81
2023/02/28 08:42:23;;;;;;;9.20;4.65;;;-1.10;90.10;;;;;;5046658;28;20025;-81
2023/02/28 08:44:49;;;;;;;8.10;4.68;;;-1.20;90.20;;;;;;5059459;28;20025;-81
2023/02/28 08:47:15;;;;;;;10.05;4.50;;;-1.30;90.40;;;;;;5059734;28;20039;-83
2023/02/28 08:49:40;;;;;;;9.65;5.38;;;-1.40;90.50;;;;;;5057933;28;20511;-82
2023/02/28 08:52:06;;;;;;;9.07;4.28;;;-1.40;90.80;;;;;;5055632;28;20025;-83
2023/02/28 08:54:33;;;;;;;8.32;6.05;;;-1.40;90.80;;;;;;5036560;28;20041;-81
2023/02/28 08:56:59;;;;;;;7.57;5.00;;;-1.50;91.20;;;;;;5053647;28;20017;-82
2023/02/28 08:59:25;;;;;;;9.25;6.18;;;-1.50;91.10;;;;;;5053410;28;20029;-82
2023/02/28 09:01:51;;;;;;;8.90;5.22;;;-1.40;91.20;;;;;;5053505;28;20028;-82
2023/02/28 09:04:17;;;;;;;6.40;3.38;;;-1.40;91.30;;;;;;5054431;28;20100;-82
2023/02/28 09:06:44;;;;;;;6.00;3.53;;;-1.50;91.40;;;;;;5035745;28;20396;-81
2023/02/28 09:09:10;;;;;;;7.10;4.20;;;-1.50;91.60;;;;;;5053588;28;20112;-81
2023/02/28 09:11:36;;;;;;;6.85;3.85;;;-1.50;91.70;;;;;;5054069;28;20021;-84
2023/02/28 09:14:03;;;;;;;7.97;4.20;;;-1.40;91.90;;;;;;5052638;28;20051;-81
2023/02/28 09:16:30;;;;;;;7.88;3.55;;;-1.40;91.90;;;;;;5053723;28;20363;-81
2023/02/28 09:18:56;;;;;;;;;;;-1.40;92.00;;;;;;5054583;28;20032;-81
2023/02/28 09:21:23;;;;;;;4.55;2.90;;;-1.40;91.80;;;;;;5054562;28;19909;-81
2023/02/28 09:23:50;;;;;;;4.85;2.90;;;-1.40;91.90;;;;;;5053576;28;20066;-81
2023/02/28 09:26:25;;;;;;;5.65;3.33;;;-1.30;92.10;;;;;;5053814;28;20041;-82
2023/02/28 09:28:52;;;;;;;4.78;3.30;;;-1.20;92.00;;;;;;5036179;28;20033;-81
2023/02/28 09:31:21;;;;;;;7.45;3.80;;;-1.10;92.10;;;;;;5059414;28;20017;-81
2023/02/28 09:33:49;;;;;;;5.00;2.88;;;-1.00;91.90;;;;;;5060463;28;20105;-82
2023/02/28 09:36:15;;;;;;;;;;;-1.10;91.60;;;;;;5043566;28;20037;-81
2023/02/28 09:38:42;;;;;;;4.93;3.08;;;-1.10;91.70;;;;;;5054794;28;19908;-82
2023/02/28 09:41:19;;;;;;;5.85;3.42;;;-1.10;91.90;;;;;;5055732;28;20017;-83
2023/02/28 09:43:49;;;;;;;4.93;4.07;;;-1.10;92.00;;;;;;5057738;28;20033;-82
2023/02/28 09:46:40;;;;;;;5.63;3.72;;;-1.00;92.00;;;;;;5053983;28;20030;-83
2023/02/28 09:49:17;;;;;;;11.63;8.25;;;-0.90;92.10;;;;;;5051835;28;20087;-81
2023/02/28 09:52:03;;;;;;;7.07;4.30;;;-0.80;91.90;;;;;;5034119;28;20037;-82
2023/02/28 09:54:32;;;;;;;6.83;3.63;;;-0.70;91.90;;;;;;5053746;28;20036;-81
2023/02/28 09:57:15;;;;;;;8.88;3.88;;;-0.70;91.60;;;;;;5053265;28;20359;-81
2023/02/28 10:00:18;;;;;;;4.97;3.58;;;-0.70;91.70;;;;;;5056438;28;20047;-81
2023/02/28 10:03:05;;;;;;;4.72;2.90;;;-0.80;91.60;;;;;;5054601;28;20025;-81
2023/02/28 10:05:41;;;;;;;8.00;4.13;;;-0.90;91.80;;;;;;5036881;28;20104;-82
2023/02/28 10:08:26;;;;;;;4.38;2.50;;;-1.10;92.00;;;;;;5055256;28;20104;-82
2023/02/28 10:10:58;;;;;;;4.82;2.35;;;-1.00;92.20;;;;;;5034670;28;20049;-82
2023/02/28 10:13:45;;;;;;;12.45;4.57;;;-1.00;92.20;;;;;;5055860;28;20049;-81
2023/02/28 10:16:20;;;;;;;8.40;5.07;;;-1.10;92.30;;;;;;5052068;28;20508;-82
2023/02/28 10:18:57;;;;;;;5.50;3.78;;;-1.10;92.40;;;;;;5052996;28;20359;-82
2023/02/28 10:21:30;;;;;;;7.05;4.00;;;-1.10;92.60;;;;;;5056898;28;20416;-83
2023/02/28 10:24:21;;;;;;;5.82;3.10;;;-1.00;92.70;;;;;;5056737;28;20049;-83
2023/02/28 10:26:48;;;;;;;4.03;2.40;;;-0.90;92.70;;;;;;5047379;28;20037;-82
2023/02/28 10:29:15;;;;;;;7.13;5.90;;;-0.90;92.50;;;;;;5060001;28;20028;-81
2023/02/28 10:31:41;;;;;;;4.57;3.00;;;-1.00;92.60;;;;;;5061785;28;20032;-82
2023/02/28 10:34:11;;;;;;;9.98;5.32;;;-0.90;92.70;;;;;;5052973;28;20025;-81
2023/02/28 10:36:38;;;;;;;5.47;3.83;;;-0.90;92.70;;;;;;5040925;28;20017;-82
2023/02/28 10:39:34;;;;;;;4.45;2.80;;;-0.90;92.60;;;;;;5057231;28;20017;-81
2023/02/28 10:42:00;;;;;;;6.85;3.58;;;-1.00;92.80;;;;;;5045963;28;20109;-81
2023/02/28 10:44:26;;;;;;;5.55;3.22;;;-0.90;93.00;;;;;;5055155;28;20045;-82
2023/02/28 10:46:52;;;;;;;5.43;3.72;;;-0.90;93.00;;;;;;5039340;28;20032;-81
2023/02/28 10:49:26;;;;;;;5.68;3.50;;;-0.90;92.90;;;;;;5057554;28;20043;-82
2023/02/28 10:51:56;;;;;;;5.90;3.38;;;-0.90;93.00;;;;;;5041528;28;20029;-83
2023/02/28 10:54:30;;;;;;;4.95;3.38;;;-0.90;93.00;;;;;;5057744;28;20074;-81
2023/02/28 10:57:09;;;;;;;9.25;3.75;;;-1.00;93.00;;;;;;5058520;28;20017;-82
2023/02/28 10:59:36;;;;;;;9.43;5.15;;;-1.00;93.20;;;;;;5058084;28;20032;-83
2023/02/28 11:02:01;;;;;;;5.90;3.57;;;-1.00;93.20;;;;;;5055436;28;20054;-80
2023/02/28 11:04:29;;;;;;;8.75;4.10;;;-1.00;93.30;;;;;;5056556;28;20108;-82
2023/02/28 11:07:17;;;;;;;7.70;4.20;;;-1.00;93.40;;;;;;5055849;28;20013;-81
2023/02/28 11:09:49;;;;;;;9.48;3.65;;;-1.00;93.40;;;;;;5056540;28;20072;-81
2023/02/28 11:12:31;;;;;;;9.00;3.60;;;-1.00;93.50;;;;;;5056796;28;20017;-82
2023/02/28 11:15:21;;;;;;;8.25;4.80;;;-1.00;93.60;;;;;;5058336;28;20106;-82
2023/02/28 11:18:00;;;;;;;6.70;4.03;;;-1.00;93.80;;;;;;5058269;28;20013;-81
2023/02/28 11:20:29;;;;;;;5.88;3.75;;;-1.00;93.80;;;;;;5057100;28;20047;-83
2023/02/28 11:22:58;;;;;;;5.55;3.85;;;-1.10;93.80;;;;;;5038630;28;20040;-82
2023/02/28 11:25:33;;;;;;;7.13;3.35;;;-1.10;94.10;;;;;;5058100;28;20356;-83
2023/02/28 11:28:01;;;;;;;7.03;4.90;;;-1.20;94.20;;;;;;5062726;28;20097;-81
2023/02/28 11:30:38;;;;;;;6.15;3.75;;;-1.20;94.30;;;;;;5063182;28;20017;-81
2023/02/28 11:33:27;;;;;;;7.53;4.27;;;-1.20;94.40;;;;;;5063065;28;20024;-83
2023/02/28 11:35:58;;;;;;;6.57;3.85;;;-1.20;94.50;;;;;;5061829;28;20033;-82
2023/02/28 11:38:25;;;;;;;6.22;4.32;;;-1.20;94.50;;;;;;5032176;28;20086;-84
2023/02/28 11:40:55;;;;;;;10.07;5.15;;;-1.10;94.60;;;;;;5050386;28;20100;-82
2023/02/28 11:43:33;;;;;;;6.53;3.58;;;-1.20;94.70;;;;;;5057876;28;20048;-82
2023/02/28 11:46:16;;;;;;;6.65;3.53;;;-1.10;94.80;;;;;;5058676;28;20382;-84
2023/02/28 11:49:01;;;;;;;5.43;3.85;;;-1.10;95.10;;;;;;5019408;28;20037;-82
2023/02/28 11:51:47;;;;;;;9.05;3.70;;;-1.20;95.60;;;;;;5051482;28;20021;-82
2023/02/28 11:54:31;;;;;;;7.15;4.32;;;-1.30;96.10;;;;;;5055863;28;20029;-83
2023/02/28 11:57:41;;;;;;;4.80;3.30;;;-1.40;96.60;;;;;;5055733;28;20021;-82
2023/02/28 12:00:44;;;;;;;6.97;4.10;;;-1.30;96.60;;;;;;5063587;28;20017;-81
2023/02/28 12:03:45;;;;;;;6.35;3.88;;;-1.40;96.80;;;;;;5066701;28;20032;-82
2023/02/28 12:06:21;;;;;;;5.90;3.08;;;-1.40;97.20;;;;;;5069652;28;20025;-82
2023/02/28 12:08:59;;;;;;;8.40;4.13;;;-1.50;97.90;;;;;;5065785;28;20017;-82
2023/02/28 12:11:48;;;;;;;7.47;4.85;;;-1.60;98.80;;;;;;5058370;28;20358;-83
2023/02/28 12:14:37;;;;;;;8.68;4.50;;;-1.70;99.40;;;;;;5049282;28;20068;-82
2023/02/28 12:17:30;;;;;;;7.15;5.57;;;-1.70;99.90;;;;;;5056890;28;20029;-83
2023/02/28 12:20:11;;;;;;;5.88;4.75;;;-1.80;99.90;;;;;;5057382;28;20032;-83
2023/02/28 12:23:01;;;;;;;6.22;3.58;;;-1.80;99.90;;;;;;5049124;28;20021;-83
2023/02/28 12:26:00;;;;;;;7.50;4.85;;;-1.70;99.90;;;;;;5052881;28;20036;-82
2023/02/28 12:28:36;;;;;;;5.18;3.88;;;-1.70;99.90;;;;;;5053420;28;20024;-83
2023/02/28 12:31:10;;;;;;;7.25;4.70;;;-1.80;99.90;;;;;;5035137;28;20033;-82
2023/02/28 12:33:42;;;;;;;5.78;4.88;;;-1.80;99.90;;;;;;5054266;28;20086;-82
2023/02/28 12:36:15;;;;;;;5.72;4.60;;;-1.70;99.90;;;;;;5054805;28;20029;-82
2023/02/28 12:38:49;;;;;;;8.43;4.88;;;-1.70;99.90;;;;;;5038947;28;20052;-83
2023/02/28 12:41:25;;;;;;;5.85;3.38;;;-1.70;99.90;;;;;;5055390;28;20115;-83
2023/02/28 12:44:21;;;;;;;6.38;3.45;;;-1.80;99.90;;;;;;5055399;28;20017;-82
2023/02/28 12:46:51;;;;;;;5.63;4.00;;;-1.80;99.90;;;;;;5053978;28;20013;-82
2023/02/28 12:49:46;;;;;;;9.07;4.13;;;-1.80;99.90;;;;;;5053605;28;20450;-82
2023/02/28 12:52:16;;;;;;;6.30;3.83;;;-1.80;99.90;;;;;;5042066;28;20035;-83
2023/02/28 12:54:49;;;;;;;7.70;4.50;;;-1.80;99.90;;;;;;5052748;28;20032;-81
2023/02/28 12:57:41;;;;;;;6.90;5.18;;;-1.70;99.90;;;;;;5053441;28;20025;-82
2023/02/28 13:00:22;;;;;;;6.18;3.97;;;-1.70;99.90;;;;;;5040982;28;20506;-83
2023/02/28 13:03:06;;;;;;;8.43;5.30;;;-1.60;99.90;;;;;;5055681;28;20052;-83
2023/02/28 13:05:32;;;;;;;8.70;4.82;;;-1.60;99.90;;;;;;5041373;28;20477;-82
2023/02/28 13:08:21;;;;;;;7.88;5.03;;;-1.60;99.90;;;;;;5054108;28;20029;-84
2023/02/28 13:10:54;;;;;;;8.05;4.95;;;-1.60;99.90;;;;;;5055562;28;20378;-81